• Join FlightAware (Why Join?)
  • Login
  • US Flag 
02:24AM EDT


 

Airport Tracker/Info


-or-


 

Live Flight TrackerFlight Track Log ✈ SWA3937 ✈ 16-Apr-2013 ✈ KONT - KPHX

Flight Track Log - Related Links

Times and Time Zones

All times are in EDT time to prevent confusion due to time zone crossing. See the SWA3937 flight status page for this flight to view local times or setup timezone preferences in your user account.

Time Position Orientation Groundspeed Altitude Reporting Facility
EDT Latitude Longitude Course Direction KTS MPH feet Rate Location/Type
01:05PM 34.0322 -117.6247 145° Southeast 160 184 2,700  Level Los Angeles Center
01:06PM 33.9833 -117.5833 145° Southeast 240 276 4,600 2,160 Climbing Southern California TRACON
01:07PM 33.9167 -117.5167 140° Southeast 281 323 7,200 2,520 Climbing Southern California TRACON
01:08PM 33.8458 -117.4700 151° Southeast 299 344 10,100 2,640 Climbing Los Angeles Center
01:09PM 33.7664 -117.4031 145° Southeast 345 397 12,800 2,340 Climbing Los Angeles Center
01:10PM 33.7211 -117.2611 111° Southeast 409 471 15,000 1,920 Climbing Los Angeles Center
01:11PM 33.7092 -117.1167 96° East 432 497 16,800 1,800 Climbing Los Angeles Center
01:12PM 33.6983 -116.9778 95° East 421 484 18,800 1,080 Climbing Los Angeles Center
01:13PM 33.6883 -116.8456 95° East 404 465 19,100 1,020 Climbing Los Angeles Center
01:14PM 33.6761 -116.7144 96° East 396 456 21,000 900 Climbing Los Angeles Center
01:16PM 33.6658 -116.5769 95° East 406 467 21,000 960 Level Los Angeles Center
01:17PM 33.6500 -116.4139 97° East 408 470 23,000 1,860 Climbing Los Angeles Center
01:18PM 33.6386 -116.2764 96° East 409 471 24,900 960 Climbing Los Angeles Center
01:19PM 33.6269 -116.1214 95° East 450 518 25,000  Climbing Los Angeles Center
01:20PM 33.6236 -115.9636 91° East 467 537 25,000 660 Level Los Angeles Center
01:21PM 33.6208 -115.8075 91° East 468 539 26,400 960 Climbing Los Angeles Center
01:22PM 33.6172 -115.6475 92° East 477 549 27,000 960 Climbing Los Angeles Center
01:23PM 33.6119 -115.4528 92° East 486 559 28,500 1,860 Climbing Los Angeles Center
01:24PM 33.6067 -115.2922 92° East 483 556 30,900 1,200 Climbing Los Angeles Center
01:25PM 33.6039 -115.1350 91° East 476 548 31,000  Climbing Los Angeles Center
01:26PM 33.5994 -114.9794 92° East 468 539 30,900 -540 Descending Los Angeles Center
01:27PM 33.5958 -114.8206 92° East 476 548 30,000 -960 Descending Los Angeles Center
01:28PM 33.5756 -114.6633 99° East 478 550 29,000 -1,020 Descending Los Angeles Center
01:29PM 33.5450 -114.4919 102° East 478 550 27,900 -1,020 Descending Albuquerque Center
01:30PM 33.5156 -114.3375 103° East 476 548 26,900 -1,020 Descending Albuquerque Center
01:31PM 33.4833 -114.1858 104° East 472 543 25,900 -960 Descending Albuquerque Center
01:32PM 33.4550 -114.0367 103° East 465 535 25,000 -480 Descending Albuquerque Center
01:33PM 33.4186 -113.8617 104° East 454 522 25,000  Level Albuquerque Center
01:34PM 33.3900 -113.7147 103° East 453 521 25,000 -720 Level Albuquerque Center
01:35PM 33.3597 -113.5708 104° East 448 516 23,600 -1,500 Descending Albuquerque Center
01:36PM 33.3308 -113.4278 104° East 443 510 21,900 -1,800 Descending Albuquerque Center
01:37PM 33.3033 -113.2928 104° East 427 491 19,900 -2,040 Descending Albuquerque Center
01:38PM 33.2758 -113.1600 104° East 416 479 17,800 -1,440 Descending Albuquerque Center
01:39PM 33.2747 -113.0256 91° East 403 464 17,000 -780 Descending Albuquerque Center
01:40PM 33.2792 -112.8708 88° East 392 451 16,200 -540 Descending Albuquerque Center
01:41PM 33.2822 -112.7478 88° East 378 435 16,000 -840 Descending Albuquerque Center
01:42PM 33.2828 -112.6283 90° East 365 420 14,500 -1,500 Descending Albuquerque Center
01:43PM 33.2881 -112.5036 87° East 352 405 12,900 -1,560 Descending Albuquerque Center
01:44PM 33.2911 -112.3894 88° East 348 400 11,400 -1,320 Descending Albuquerque Center
01:45PM 33.2975 -112.2778 86° East 339 390 10,300 -1,020 Descending Albuquerque Center
01:47PM 33.3056 -112.1736 85° East 320 368 9,400 -780 Descending Albuquerque Center
01:48PM 33.3147 -112.0781 83° East 293 337 8,700 -1,020 Descending Albuquerque Center
01:49PM 33.3383 -111.9875 73° East 288 331 7,400 -1,080 Descending Albuquerque Center
01:50PM 33.3456 -111.8839 85° East 255 293 6,500 -1,140 Descending Albuquerque Center
01:51PM 33.3444 -111.8058 91° East 240 276 5,100 -1,020 Descending Albuquerque Center
01:52PM 33.3664 -111.7456 66° East 235 270 4,500 -540 Descending Albuquerque Center
01:53PM 33.4156 -111.7711 337° Northwest 210 242 4,000 -300 Descending Albuquerque Center
01:54PM 33.4289 -111.8261 286° West 179 206 3,900 -540 Descending Albuquerque Center
01:55PM 33.4292 -111.8861 270° West 179 206 3,000 -840 Descending Albuquerque Center
01:56PM 33.4292 -111.9389 270° West 161 185 2,200 -840 Descending Albuquerque Center
01:57PM 33.4286 -111.9969 269° West 144 166 1,300 -900 Descending Albuquerque Center